Terminal Aerodrome Forecast
Issued by NWS Greer, SC

Home | Current Version | Previous Version | Text Only | Print | Product List | Glossary On
Versions: 1 2 3 4 5 6 7 8 9 10 11 12 13 14 15 16 17 18
000
FTUS42 KGSP 291738
TAFGSP
TAF
KGSP 291738Z 2918/3018 13005KT P6SM BKN035
     FM292100 13006KT P6SM SCT050
     FM300700 00000KT P6SM SCT250
     FM301100 00000KT 6SM BR BKN016
     FM301400 18003KT P6SM BKN024
     FM301600 18004KT P6SM SCT045=

USA.gov is the U.S. government's official web portal to all federal, state and local government web resources and services.